Terminal Aerodrome Forecast
Issued by NWS

Home | Current Version | Previous Version | Graphics & Text | Print | Product List | Glossary On
Versions: 1 2 3 4 5 6 7 8 9 10 11 12 13 14
000
FTUS43 KBIS 250700 AAA
TAFJMS
TAF AMD
KJMS 250745Z 2508/2606 07008KT 1SM -SN OVC015
      TEMPO 2508/2512 3SM -SN SCT015 OVC025
     FM251200 05014KT P6SM -SN SCT025 OVC040
     FM251500 35016KT P6SM SCT040 BKN100
     FM252200 33012KT P6SM SCT100=

USA.gov is the U.S. government's official web portal to all federal, state and local government web resources and services.